sensor_id;sensor_type;location;lat;lon;timestamp;pressure;altitude;pressure_sealevel;temperature;humidity
44934;BME280;30667;43.614;1.442;2023-05-03T00:01:37;100189.16;;;15.07;100.00
44934;BME280;30667;43.614;1.442;2023-05-03T00:04:03;100192.47;;;14.90;100.00
44934;BME280;30667;43.614;1.442;2023-05-03T00:06:29;100185.31;;;14.94;100.00
44934;BME280;30667;43.614;1.442;2023-05-03T00:08:55;100182.19;;;15.01;100.00
44934;BME280;30667;43.614;1.442;2023-05-03T00:11:21;100184.53;;;14.94;100.00
44934;BME280;30667;43.614;1.442;2023-05-03T00:13:46;100182.19;;;15.01;100.00
44934;BME280;30667;43.614;1.442;2023-05-03T00:16:11;100171.91;;;14.98;100.00
44934;BME280;30667;43.614;1.442;2023-05-03T00:18:37;100168.19;;;14.80;100.00
44934;BME280;30667;43.614;1.442;2023-05-03T00:21:02;100171.19;;;14.78;100.00
44934;BME280;30667;43.614;1.442;2023-05-03T00:23:28;100167.38;;;14.79;100.00
44934;BME280;30667;43.614;1.442;2023-05-03T00:25:55;100166.25;;;14.66;100.00
44934;BME280;30667;43.614;1.442;2023-05-03T00:28:20;100161.22;;;14.74;100.00
44934;BME280;30667;43.614;1.442;2023-05-03T00:30:46;100154.47;;;14.71;100.00
44934;BME280;30667;43.614;1.442;2023-05-03T00:33:11;100155.38;;;14.66;100.00
44934;BME280;30667;43.614;1.442;2023-05-03T00:35:37;100154.53;;;14.66;100.00
44934;BME280;30667;43.614;1.442;2023-05-03T00:38:02;100147.41;;;14.70;100.00
44934;BME280;30667;43.614;1.442;2023-05-03T00:40:28;100144.19;;;14.68;100.00
44934;BME280;30667;43.614;1.442;2023-05-03T00:42:53;100138.00;;;14.62;100.00
44934;BME280;30667;43.614;1.442;2023-05-03T00:45:18;100140.94;;;14.80;100.00
44934;BME280;30667;43.614;1.442;2023-05-03T00:47:44;100138.31;;;14.75;100.00
44934;BME280;30667;43.614;1.442;2023-05-03T00:50:10;100131.34;;;14.68;100.00
44934;BME280;30667;43.614;1.442;2023-05-03T00:52:37;100125.72;;;14.65;100.00
44934;BME280;30667;43.614;1.442;2023-05-03T00:55:03;100120.75;;;14.67;100.00
44934;BME280;30667;43.614;1.442;2023-05-03T00:57:29;100116.72;;;14.64;100.00
44934;BME280;30667;43.614;1.442;2023-05-03T00:59:58;100114.81;;;14.65;100.00
44934;BME280;30667;43.614;1.442;2023-05-03T01:02:23;100104.44;;;14.67;100.00
44934;BME280;30667;43.614;1.442;2023-05-03T01:04:50;100104.63;;;14.70;100.00
44934;BME280;30667;43.614;1.442;2023-05-03T01:18:24;100079.19;;;14.75;100.00
44934;BME280;30667;43.614;1.442;2023-05-03T01:20:52;100075.56;;;14.80;100.00
44934;BME280;30667;43.614;1.442;2023-05-03T01:23:28;100071.94;;;14.84;100.00
44934;BME280;30667;43.614;1.442;2023-05-03T01:25:57;100067.28;;;14.85;100.00
44934;BME280;30667;43.614;1.442;2023-05-03T01:28:22;100074.34;;;14.86;100.00
44934;BME280;30667;43.614;1.442;2023-05-03T01:30:49;100072.72;;;14.99;100.00
44934;BME280;30667;43.614;1.442;2023-05-03T01:33:30;100073.31;;;14.96;100.00
44934;BME280;30667;43.614;1.442;2023-05-03T01:36:03;100067.00;;;15.23;100.00
44934;BME280;30667;43.614;1.442;2023-05-03T01:38:36;100066.41;;;15.12;100.00
44934;BME280;30667;43.614;1.442;2023-05-03T01:41:05;100068.66;;;14.96;100.00
44934;BME280;30667;43.614;1.442;2023-05-03T01:43:32;100072.53;;;14.95;100.00
44934;BME280;30667;43.614;1.442;2023-05-03T01:45:58;100068.91;;;14.86;100.00
44934;BME280;30667;43.614;1.442;2023-05-03T01:48:24;100063.03;;;14.93;100.00
44934;BME280;30667;43.614;1.442;2023-05-03T01:50:49;100059.81;;;14.91;100.00
44934;BME280;30667;43.614;1.442;2023-05-03T01:53:15;100056.09;;;14.86;100.00
44934;BME280;30667;43.614;1.442;2023-05-03T01:55:40;100052.38;;;14.82;100.00
44934;BME280;30667;43.614;1.442;2023-05-03T01:58:06;100050.56;;;14.78;100.00
44934;BME280;30667;43.614;1.442;2023-05-03T02:00:31;100046.31;;;14.85;100.00
44934;BME280;30667;43.614;1.442;2023-05-03T02:02:57;100045.91;;;14.78;100.00
44934;BME280;30667;43.614;1.442;2023-05-03T02:05:22;100046.63;;;14.84;100.00
44934;BME280;30667;43.614;1.442;2023-05-03T02:07:48;100045.72;;;14.75;100.00
44934;BME280;30667;43.614;1.442;2023-05-03T02:10:13;100037.31;;;14.85;100.00
44934;BME280;30667;43.614;1.442;2023-05-03T02:12:40;100037.25;;;14.76;100.00
44934;BME280;30667;43.614;1.442;2023-05-03T02:15:06;100033.31;;;14.82;100.00
44934;BME280;30667;43.614;1.442;2023-05-03T02:17:32;100030.78;;;14.72;100.00
44934;BME280;30667;43.614;1.442;2023-05-03T02:19:58;100031.69;;;14.67;100.00
44934;BME280;30667;43.614;1.442;2023-05-03T02:22:23;100025.75;;;14.65;100.00
44934;BME280;30667;43.614;1.442;2023-05-03T02:24:49;100026.13;;;14.59;100.00
44934;BME280;30667;43.614;1.442;2023-05-03T02:27:14;100027.06;;;14.54;100.00
44934;BME280;30667;43.614;1.442;2023-05-03T02:29:40;100026.84;;;14.50;100.00
44934;BME280;30667;43.614;1.442;2023-05-03T02:32:05;100025.94;;;14.41;100.00
44934;BME280;30667;43.614;1.442;2023-05-03T02:34:31;100024.94;;;14.37;100.00
44934;BME280;30667;43.614;1.442;2023-05-03T02:36:57;100022.22;;;14.37;100.00
44934;BME280;30667;43.614;1.442;2023-05-03T02:39:22;100026.34;;;14.34;100.00
44934;BME280;30667;43.614;1.442;2023-05-03T02:41:48;100025.63;;;14.29;100.00
44934;BME280;30667;43.614;1.442;2023-05-03T02:44:13;100025.16;;;14.27;100.00
44934;BME280;30667;43.614;1.442;2023-05-03T02:46:39;100030.56;;;14.13;100.00
44934;BME280;30667;43.614;1.442;2023-05-03T02:49:08;100030.06;;;14.11;100.00
44934;BME280;30667;43.614;1.442;2023-05-03T02:51:34;100023.00;;;14.10;100.00
44934;BME280;30667;43.614;1.442;2023-05-03T02:54:00;100021.72;;;14.07;100.00
44934;BME280;30667;43.614;1.442;2023-05-03T02:56:26;100018.75;;;14.04;100.00
44934;BME280;30667;43.614;1.442;2023-05-03T02:58:53;100018.25;;;14.02;100.00
44934;BME280;30667;43.614;1.442;2023-05-03T03:01:18;100024.31;;;13.98;100.00
44934;BME280;30667;43.614;1.442;2023-05-03T03:03:43;100023.81;;;13.96;100.00
44934;BME280;30667;43.614;1.442;2023-05-03T03:06:09;100020.34;;;13.91;100.00
44934;BME280;30667;43.614;1.442;2023-05-03T03:08:37;100016.00;;;13.76;100.00
44934;BME280;30667;43.614;1.442;2023-05-03T03:11:04;100013.09;;;13.72;100.00
44934;BME280;30667;43.614;1.442;2023-05-03T03:13:29;100015.50;;;13.74;100.00
44934;BME280;30667;43.614;1.442;2023-05-03T03:15:54;100013.09;;;13.72;100.00
44934;BME280;30667;43.614;1.442;2023-05-03T03:18:20;100019.31;;;13.73;100.00
44934;BME280;30667;43.614;1.442;2023-05-03T03:20:45;100012.66;;;13.65;100.00
44934;BME280;30667;43.614;1.442;2023-05-03T03:23:11;100014.19;;;13.71;100.00
44934;BME280;30667;43.614;1.442;2023-05-03T03:25:36;100017.28;;;13.65;100.00
44934;BME280;30667;43.614;1.442;2023-05-03T03:28:02;100013.44;;;13.66;100.00
44934;BME280;30667;43.614;1.442;2023-05-03T03:30:27;100015.28;;;13.70;100.00
44934;BME280;30667;43.614;1.442;2023-05-03T03:32:53;100008.63;;;13.62;100.00
44934;BME280;30667;43.614;1.442;2023-05-03T03:35:19;100012.16;;;13.63;100.00
44934;BME280;30667;43.614;1.442;2023-05-03T03:37:44;100004.09;;;13.58;100.00
44934;BME280;30667;43.614;1.442;2023-05-03T03:40:10;99998.72;;;13.53;100.00
44934;BME280;30667;43.614;1.442;2023-05-03T03:42:36;100003.44;;;13.47;100.00
44934;BME280;30667;43.614;1.442;2023-05-03T03:45:01;100009.84;;;13.37;100.00
44934;BME280;30667;43.614;1.442;2023-05-03T03:47:28;100003.38;;;13.33;100.00
44934;BME280;30667;43.614;1.442;2023-05-03T03:49:54;100001.22;;;13.30;100.00
44934;BME280;30667;43.614;1.442;2023-05-03T03:52:19;100002.13;;;13.25;100.00
44934;BME280;30667;43.614;1.442;2023-05-03T03:54:44;99995.78;;;13.30;100.00
44934;BME280;30667;43.614;1.442;2023-05-03T03:57:10;100004.34;;;13.23;100.00
44934;BME280;30667;43.614;1.442;2023-05-03T03:59:35;99997.06;;;13.19;100.00
44934;BME280;30667;43.614;1.442;2023-05-03T04:02:00;100002.94;;;13.26;100.00
44934;BME280;30667;43.614;1.442;2023-05-03T04:04:26;100013.28;;;13.24;100.00
44934;BME280;30667;43.614;1.442;2023-05-03T04:06:52;100011.38;;;13.24;100.00
44934;BME280;30667;43.614;1.442;2023-05-03T04:09:17;100013.38;;;13.19;100.00
44934;BME280;30667;43.614;1.442;2023-05-03T04:11:43;100011.31;;;13.11;100.00
44934;BME280;30667;43.614;1.442;2023-05-03T04:14:09;100010.88;;;13.03;100.00
44934;BME280;30667;43.614;1.442;2023-05-03T04:16:34;100016.59;;;13.02;100.00
44934;BME280;30667;43.614;1.442;2023-05-03T04:19:00;100017.72;;;13.01;100.00
44934;BME280;30667;43.614;1.442;2023-05-03T04:21:26;100018.09;;;12.94;100.00
44934;BME280;30667;43.614;1.442;2023-05-03T04:23:52;100014.53;;;12.94;100.00
44934;BME280;30667;43.614;1.442;2023-05-03T04:26:18;100006.84;;;13.01;100.00
44934;BME280;30667;43.614;1.442;2023-05-03T04:28:46;100009.66;;;12.96;100.00
44934;BME280;30667;43.614;1.442;2023-05-03T04:31:12;100002.13;;;12.87;100.00
44934;BME280;30667;43.614;1.442;2023-05-03T04:33:38;99998.47;;;12.78;100.00
44934;BME280;30667;43.614;1.442;2023-05-03T04:36:04;99999.66;;;12.72;100.00
44934;BME280;30667;43.614;1.442;2023-05-03T04:38:30;99995.88;;;12.68;100.00
44934;BME280;30667;43.614;1.442;2023-05-03T04:40:55;100011.00;;;12.74;100.00
44934;BME280;30667;43.614;1.442;2023-05-03T04:43:22;100006.09;;;12.76;100.00
44934;BME280;30667;43.614;1.442;2023-05-03T04:45:47;100009.63;;;12.77;100.00
44934;BME280;30667;43.614;1.442;2023-05-03T04:48:13;100009.03;;;12.61;100.00
44934;BME280;30667;43.614;1.442;2023-05-03T04:50:38;100013.91;;;12.59;100.00
44934;BME280;30667;43.614;1.442;2023-05-03T04:53:03;100012.84;;;12.60;100.00
44934;BME280;30667;43.614;1.442;2023-05-03T04:55:29;100009.91;;;12.56;100.00
44934;BME280;30667;43.614;1.442;2023-05-03T04:57:54;100005.34;;;12.51;100.00
44934;BME280;30667;43.614;1.442;2023-05-03T05:00:20;100005.84;;;12.53;100.00
44934;BME280;30667;43.614;1.442;2023-05-03T05:02:46;100008.50;;;12.59;100.00
44934;BME280;30667;43.614;1.442;2023-05-03T05:05:12;100009.69;;;12.52;100.00
44934;BME280;30667;43.614;1.442;2023-05-03T05:07:37;100015.09;;;12.52;100.00
44934;BME280;30667;43.614;1.442;2023-05-03T05:10:03;100022.50;;;12.47;100.00
44934;BME280;30667;43.614;1.442;2023-05-03T05:12:28;100012.72;;;12.46;100.00
44934;BME280;30667;43.614;1.442;2023-05-03T05:14:54;100023.53;;;12.51;100.00
44934;BME280;30667;43.614;1.442;2023-05-03T05:17:19;100020.56;;;12.47;100.00
44934;BME280;30667;43.614;1.442;2023-05-03T05:19:46;100025.13;;;12.52;100.00
44934;BME280;30667;43.614;1.442;2023-05-03T05:22:11;100030.84;;;12.50;100.00
44934;BME280;30667;43.614;1.442;2023-05-03T05:24:36;100027.34;;;12.50;100.00
44934;BME280;30667;43.614;1.442;2023-05-03T05:27:02;100036.00;;;12.52;100.00
44934;BME280;30667;43.614;1.442;2023-05-03T05:29:27;100035.06;;;12.62;100.00
44934;BME280;30667;43.614;1.442;2023-05-03T05:31:53;100036.97;;;12.61;100.00
44934;BME280;30667;43.614;1.442;2023-05-03T05:34:18;100038.81;;;12.66;100.00
44934;BME280;30667;43.614;1.442;2023-05-03T05:36:44;100042.88;;;12.68;100.00
44934;BME280;30667;43.614;1.442;2023-05-03T05:39:09;100044.69;;;12.73;100.00
44934;BME280;30667;43.614;1.442;2023-05-03T05:41:36;100051.75;;;12.74;100.00
44934;BME280;30667;43.614;1.442;2023-05-03T05:44:01;100048.44;;;12.77;100.00
44934;BME280;30667;43.614;1.442;2023-05-03T05:46:26;100045.56;;;12.87;100.00
44934;BME280;30667;43.614;1.442;2023-05-03T05:48:52;100038.56;;;12.86;100.00
44934;BME280;30667;43.614;1.442;2023-05-03T05:51:17;100046.47;;;12.83;100.00
44934;BME280;30667;43.614;1.442;2023-05-03T05:53:43;100050.38;;;12.96;100.00
44934;BME280;30667;43.614;1.442;2023-05-03T05:56:08;100047.88;;;12.99;100.00
44934;BME280;30667;43.614;1.442;2023-05-03T05:58:35;100047.38;;;13.16;100.00
44934;BME280;30667;43.614;1.442;2023-05-03T06:01:04;100052.19;;;13.19;100.00
44934;BME280;30667;43.614;1.442;2023-05-03T06:03:30;100050.31;;;13.20;100.00
44934;BME280;30667;43.614;1.442;2023-05-03T06:05:58;100056.19;;;13.46;100.00
44934;BME280;30667;43.614;1.442;2023-05-03T06:08:23;100050.72;;;13.98;100.00
44934;BME280;30667;43.614;1.442;2023-05-03T06:10:49;100049.03;;;14.44;100.00
44934;BME280;30667;43.614;1.442;2023-05-03T06:13:17;100056.88;;;14.45;100.00
44934;BME280;30667;43.614;1.442;2023-05-03T06:15:42;100049.69;;;13.94;100.00
44934;BME280;30667;43.614;1.442;2023-05-03T06:18:07;100050.31;;;13.72;100.00
44934;BME280;30667;43.614;1.442;2023-05-03T06:20:33;100051.22;;;13.67;100.00
44934;BME280;30667;43.614;1.442;2023-05-03T06:22:58;100036.53;;;13.68;100.00
44934;BME280;30667;43.614;1.442;2023-05-03T06:25:23;100043.50;;;13.74;100.00
44934;BME280;30667;43.614;1.442;2023-05-03T06:27:49;100043.19;;;13.76;100.00
44934;BME280;30667;43.614;1.442;2023-05-03T06:30:15;100046.13;;;13.79;100.00
44934;BME280;30667;43.614;1.442;2023-05-03T06:32:41;100042.41;;;13.89;100.00
44934;BME280;30667;43.614;1.442;2023-05-03T06:35:07;100044.97;;;13.99;100.00
44934;BME280;30667;43.614;1.442;2023-05-03T06:37:34;100046.25;;;14.02;100.00
44934;BME280;30667;43.614;1.442;2023-05-03T06:40:00;100044.78;;;14.10;100.00
44934;BME280;30667;43.614;1.442;2023-05-03T06:42:25;100042.19;;;14.19;100.00
44934;BME280;30667;43.614;1.442;2023-05-03T06:44:51;100045.69;;;14.19;100.00
44934;BME280;30667;43.614;1.442;2023-05-03T06:47:17;100043.66;;;14.25;100.00
44934;BME280;30667;43.614;1.442;2023-05-03T06:49:44;100045.13;;;14.36;100.00
44934;BME280;30667;43.614;1.442;2023-05-03T06:52:10;100041.47;;;14.41;100.00
44934;BME280;30667;43.614;1.442;2023-05-03T06:54:35;100038.84;;;14.49;100.00
44934;BME280;30667;43.614;1.442;2023-05-03T06:57:01;100044.09;;;14.60;100.00
44934;BME280;30667;43.614;1.442;2023-05-03T06:59:26;100039.19;;;14.62;100.00
44934;BME280;30667;43.614;1.442;2023-05-03T07:01:52;100045.72;;;14.61;100.00
44934;BME280;30667;43.614;1.442;2023-05-03T07:04:17;100043.50;;;14.77;100.00
44934;BME280;30667;43.614;1.442;2023-05-03T07:06:43;100042.16;;;14.74;100.00
44934;BME280;30667;43.614;1.442;2023-05-03T07:09:08;100043.97;;;14.79;100.00
44934;BME280;30667;43.614;1.442;2023-05-03T07:11:34;100036.81;;;14.83;100.00
44934;BME280;30667;43.614;1.442;2023-05-03T07:14:02;100040.22;;;14.88;100.00
44934;BME280;30667;43.614;1.442;2023-05-03T07:16:27;100039.72;;;15.00;100.00
44934;BME280;30667;43.614;1.442;2023-05-03T07:18:53;100035.06;;;15.01;100.00
44934;BME280;30667;43.614;1.442;2023-05-03T07:21:18;100033.97;;;15.02;100.00
44934;BME280;30667;43.614;1.442;2023-05-03T07:23:44;100032.91;;;15.12;100.00
44934;BME280;30667;43.614;1.442;2023-05-03T07:26:09;100038.56;;;15.15;100.00
44934;BME280;30667;43.614;1.442;2023-05-03T07:28:35;100031.97;;;15.30;100.00
44934;BME280;30667;43.614;1.442;2023-05-03T07:31:01;100038.50;;;15.29;100.00
44934;BME280;30667;43.614;1.442;2023-05-03T07:33:27;100039.19;;;15.35;100.00
44934;BME280;30667;43.614;1.442;2023-05-03T07:35:53;100035.03;;;15.37;100.00
44934;BME280;30667;43.614;1.442;2023-05-03T07:38:18;100035.75;;;15.43;100.00
44934;BME280;30667;43.614;1.442;2023-05-03T07:40:43;100028.22;;;15.49;100.00
44934;BME280;30667;43.614;1.442;2023-05-03T07:43:09;100030.59;;;15.87;100.00
44934;BME280;30667;43.614;1.442;2023-05-03T07:45:35;100030.59;;;16.18;100.00
44934;BME280;30667;43.614;1.442;2023-05-03T07:48:00;100020.47;;;16.27;100.00
44934;BME280;30667;43.614;1.442;2023-05-03T07:50:26;100016.78;;;16.23;100.00
44934;BME280;30667;43.614;1.442;2023-05-03T07:52:51;100014.00;;;16.14;100.00
44934;BME280;30667;43.614;1.442;2023-05-03T07:55:18;100016.16;;;16.26;100.00
44934;BME280;30667;43.614;1.442;2023-05-03T07:57:44;100017.78;;;16.36;100.00
44934;BME280;30667;43.614;1.442;2023-05-03T08:00:10;100016.84;;;16.41;100.00
44934;BME280;30667;43.614;1.442;2023-05-03T08:02:36;100015.13;;;16.53;100.00
44934;BME280;30667;43.614;1.442;2023-05-03T08:05:02;100010.66;;;16.66;100.00
44934;BME280;30667;43.614;1.442;2023-05-03T08:07:30;100006.78;;;16.67;100.00
44934;BME280;30667;43.614;1.442;2023-05-03T08:09:55;100008.53;;;16.63;100.00
44934;BME280;30667;43.614;1.442;2023-05-03T08:12:23;100001.47;;;16.62;100.00
44934;BME280;30667;43.614;1.442;2023-05-03T08:14:51;100001.66;;;16.66;100.00
44934;BME280;30667;43.614;1.442;2023-05-03T08:17:17;100001.50;;;16.71;100.00
44934;BME280;30667;43.614;1.442;2023-05-03T08:19:43;99992.66;;;16.74;100.00
44934;BME280;30667;43.614;1.442;2023-05-03T08:22:08;99991.19;;;16.77;100.00
44934;BME280;30667;43.614;1.442;2023-05-03T08:24:37;99987.03;;;16.70;100.00
44934;BME280;30667;43.614;1.442;2023-05-03T08:27:02;99991.38;;;16.80;100.00
44934;BME280;30667;43.614;1.442;2023-05-03T08:29:28;99995.06;;;16.84;100.00
44934;BME280;30667;43.614;1.442;2023-05-03T08:31:54;99999.44;;;16.85;100.00
44934;BME280;30667;43.614;1.442;2023-05-03T08:34:19;99994.28;;;16.93;100.00
44934;BME280;30667;43.614;1.442;2023-05-03T08:36:45;99985.13;;;16.97;100.00
44934;BME280;30667;43.614;1.442;2023-05-03T08:39:10;99987.22;;;17.00;100.00
44934;BME280;30667;43.614;1.442;2023-05-03T08:41:35;99980.31;;;17.03;100.00
44934;BME280;30667;43.614;1.442;2023-05-03T08:44:05;99977.44;;;16.99;100.00
44934;BME280;30667;43.614;1.442;2023-05-03T08:46:32;99982.75;;;17.04;100.00
44934;BME280;30667;43.614;1.442;2023-05-03T08:49:01;99977.09;;;17.10;100.00
44934;BME280;30667;43.614;1.442;2023-05-03T08:51:27;99974.03;;;17.11;100.00
44934;BME280;30667;43.614;1.442;2023-05-03T08:53:52;99967.16;;;17.14;100.00
44934;BME280;30667;43.614;1.442;2023-05-03T08:56:43;99976.63;;;17.25;100.00
44934;BME280;30667;43.614;1.442;2023-05-03T08:59:09;99969.22;;;17.25;100.00
44934;BME280;30667;43.614;1.442;2023-05-03T09:01:36;99971.28;;;17.20;100.00
44934;BME280;30667;43.614;1.442;2023-05-03T09:04:02;99976.44;;;17.30;100.00
44934;BME280;30667;43.614;1.442;2023-05-03T09:06:28;99974.84;;;17.29;100.00
44934;BME280;30667;43.614;1.442;2023-05-03T09:08:55;99978.22;;;17.26;100.00
44934;BME280;30667;43.614;1.442;2023-05-03T09:11:28;99984.97;;;17.29;100.00
44934;BME280;30667;43.614;1.442;2023-05-03T09:14:08;99975.34;;;17.31;100.00
44934;BME280;30667;43.614;1.442;2023-05-03T09:16:34;99969.88;;;17.31;100.00
44934;BME280;30667;43.614;1.442;2023-05-03T09:19:02;99973.53;;;17.35;100.00
44934;BME280;30667;43.614;1.442;2023-05-03T09:21:29;99970.31;;;17.42;100.00
44934;BME280;30667;43.614;1.442;2023-05-03T09:23:56;99971.28;;;17.37;100.00
44934;BME280;30667;43.614;1.442;2023-05-03T09:26:34;99965.16;;;17.40;100.00
44934;BME280;30667;43.614;1.442;2023-05-03T09:29:02;99960.34;;;17.46;100.00
44934;BME280;30667;43.614;1.442;2023-05-03T09:31:28;99967.56;;;17.42;100.00
44934;BME280;30667;43.614;1.442;2023-05-03T09:33:55;99958.56;;;17.41;100.00
44934;BME280;30667;43.614;1.442;2023-05-03T09:36:20;99957.13;;;17.44;100.00
44934;BME280;30667;43.614;1.442;2023-05-03T09:38:46;99962.75;;;17.48;100.00
44934;BME280;30667;43.614;1.442;2023-05-03T09:41:12;99960.16;;;17.51;100.00
44934;BME280;30667;43.614;1.442;2023-05-03T09:43:48;99948.25;;;17.56;100.00
44934;BME280;30667;43.614;1.442;2023-05-03T09:46:14;99948.72;;;17.58;100.00
44934;BME280;30667;43.614;1.442;2023-05-03T09:48:40;99941.13;;;17.64;100.00
44934;BME280;30667;43.614;1.442;2023-05-03T09:51:07;99952.72;;;17.60;100.00
44934;BME280;30667;43.614;1.442;2023-05-03T09:53:34;99952.41;;;17.62;100.00
44934;BME280;30667;43.614;1.442;2023-05-03T09:56:05;99953.06;;;17.59;100.00
44934;BME280;30667;43.614;1.442;2023-05-03T09:58:36;99964.00;;;17.59;100.00
44934;BME280;30667;43.614;1.442;2023-05-03T10:01:03;99954.81;;;17.64;100.00
44934;BME280;30667;43.614;1.442;2023-05-03T10:03:48;99958.81;;;17.66;100.00
44934;BME280;30667;43.614;1.442;2023-05-03T10:11:43;99950.91;;;17.73;100.00
44934;BME280;30667;43.614;1.442;2023-05-03T10:14:11;99940.41;;;17.84;100.00
44934;BME280;30667;43.614;1.442;2023-05-03T10:16:37;99947.81;;;17.92;100.00
44934;BME280;30667;43.614;1.442;2023-05-03T10:21:54;99940.28;;;17.81;100.00
44934;BME280;30667;43.614;1.442;2023-05-03T10:24:22;99942.19;;;17.80;100.00
44934;BME280;30667;43.614;1.442;2023-05-03T10:26:49;99939.13;;;17.82;100.00
44934;BME280;30667;43.614;1.442;2023-05-03T10:31:59;99933.00;;;17.85;100.00
44934;BME280;30667;43.614;1.442;2023-05-03T10:34:32;99932.69;;;17.86;100.00
44934;BME280;30667;43.614;1.442;2023-05-03T10:37:09;99931.25;;;17.89;100.00
44934;BME280;30667;43.614;1.442;2023-05-03T10:39:36;99929.00;;;17.91;100.00
44934;BME280;30667;43.614;1.442;2023-05-03T10:42:06;99931.56;;;17.87;100.00
44934;BME280;30667;43.614;1.442;2023-05-03T10:47:14;99923.69;;;17.77;100.00
44934;BME280;30667;43.614;1.442;2023-05-03T10:49:40;99927.59;;;17.76;100.00
44934;BME280;30667;43.614;1.442;2023-05-03T10:55:08;99920.16;;;17.76;100.00
44934;BME280;30667;43.614;1.442;2023-05-03T10:57:36;99920.16;;;17.76;100.00
44934;BME280;30667;43.614;1.442;2023-05-03T11:00:03;99917.09;;;17.78;100.00
44934;BME280;30667;43.614;1.442;2023-05-03T11:02:37;99918.72;;;17.79;100.00
44934;BME280;30667;43.614;1.442;2023-05-03T11:05:07;99914.38;;;17.78;100.00
44934;BME280;30667;43.614;1.442;2023-05-03T11:07:35;99911.31;;;17.79;100.00
44934;BME280;30667;43.614;1.442;2023-05-03T11:10:15;99914.38;;;17.78;100.00
44934;BME280;30667;43.614;1.442;2023-05-03T11:12:40;99901.97;;;17.81;100.00
44934;BME280;30667;43.614;1.442;2023-05-03T11:15:06;99907.44;;;17.81;100.00
44934;BME280;30667;43.614;1.442;2023-05-03T11:17:32;99895.22;;;17.78;100.00
44934;BME280;30667;43.614;1.442;2023-05-03T11:19:57;99892.94;;;17.80;100.00
44934;BME280;30667;43.614;1.442;2023-05-03T11:22:23;99905.31;;;17.86;100.00
44934;BME280;30667;43.614;1.442;2023-05-03T11:24:48;99885.69;;;17.84;100.00
44934;BME280;30667;43.614;1.442;2023-05-03T11:27:22;99884.41;;;17.82;100.00
44934;BME280;30667;43.614;1.442;2023-05-03T11:29:48;99880.88;;;17.81;100.00
44934;BME280;30667;43.614;1.442;2023-05-03T11:32:13;99887.59;;;17.84;100.00
44934;BME280;30667;43.614;1.442;2023-05-03T11:34:40;99893.06;;;17.84;100.00
44934;BME280;30667;43.614;1.442;2023-05-03T11:37:07;99890.19;;;17.89;100.00
44934;BME280;30667;43.614;1.442;2023-05-03T11:39:34;99878.44;;;17.88;100.00
44934;BME280;30667;43.614;1.442;2023-05-03T11:42:03;99880.03;;;17.89;100.00
44934;BME280;30667;43.614;1.442;2023-05-03T11:44:29;99882.91;;;17.93;100.00
44934;BME280;30667;43.614;1.442;2023-05-03T11:46:54;99886.28;;;17.99;100.00
44934;BME280;30667;43.614;1.442;2023-05-03T11:49:20;99875.19;;;17.95;100.00
44934;BME280;30667;43.614;1.442;2023-05-03T11:51:46;99884.22;;;17.95;100.00
44934;BME280;30667;43.614;1.442;2023-05-03T11:54:13;99876.47;;;17.97;100.00
44934;BME280;30667;43.614;1.442;2023-05-03T11:56:38;99874.50;;;17.98;100.00
44934;BME280;30667;43.614;1.442;2023-05-03T11:59:03;99873.72;;;17.97;100.00
44934;BME280;30667;43.614;1.442;2023-05-03T12:02:00;99865.19;;;17.99;100.00
44934;BME280;30667;43.614;1.442;2023-05-03T12:04:31;99865.19;;;17.99;100.00
44934;BME280;30667;43.614;1.442;2023-05-03T12:06:57;99861.78;;;18.02;100.00
44934;BME280;30667;43.614;1.442;2023-05-03T12:09:24;99868.53;;;18.05;100.00
44934;BME280;30667;43.614;1.442;2023-05-03T12:11:50;99863.19;;;18.08;100.00
44934;BME280;30667;43.614;1.442;2023-05-03T12:14:15;99864.47;;;18.11;100.00
44934;BME280;30667;43.614;1.442;2023-05-03T12:16:48;99863.44;;;18.15;100.00
44934;BME280;30667;43.614;1.442;2023-05-03T12:19:28;99861.88;;;18.14;100.00
44934;BME280;30667;43.614;1.442;2023-05-03T12:21:54;99855.13;;;18.12;100.00
44934;BME280;30667;43.614;1.442;2023-05-03T12:24:20;99857.06;;;18.11;100.00
44934;BME280;30667;43.614;1.442;2023-05-03T12:26:48;99859.47;;;18.13;100.00
44934;BME280;30667;43.614;1.442;2023-05-03T12:29:13;99848.97;;;18.36;100.00
44934;BME280;30667;43.614;1.442;2023-05-03T12:31:40;99856.00;;;18.25;100.00
44934;BME280;30667;43.614;1.442;2023-05-03T12:34:05;99849.25;;;18.22;100.00
44934;BME280;30667;43.614;1.442;2023-05-03T12:36:32;99843.28;;;18.20;100.00
44934;BME280;30667;43.614;1.442;2023-05-03T12:38:59;99833.16;;;18.21;100.00
44934;BME280;30667;43.614;1.442;2023-05-03T12:41:25;99837.03;;;18.20;100.00
44934;BME280;30667;43.614;1.442;2023-05-03T12:43:52;99829.28;;;18.22;100.00
44934;BME280;30667;43.614;1.442;2023-05-03T12:46:18;99829.28;;;18.22;100.00
44934;BME280;30667;43.614;1.442;2023-05-03T12:48:45;99819.13;;;18.22;100.00
44934;BME280;30667;43.614;1.442;2023-05-03T12:51:10;99828.59;;;18.25;100.00
44934;BME280;30667;43.614;1.442;2023-05-03T12:53:35;99826.34;;;18.27;100.00
44934;BME280;30667;43.614;1.442;2023-05-03T12:56:01;99822.75;;;18.35;100.00
44934;BME280;30667;43.614;1.442;2023-05-03T12:58:26;99821.00;;;18.30;100.00
44934;BME280;30667;43.614;1.442;2023-05-03T13:00:52;99818.72;;;18.32;100.00
44934;BME280;30667;43.614;1.442;2023-05-03T13:03:17;99811.13;;;18.38;100.00
44934;BME280;30667;43.614;1.442;2023-05-03T13:05:43;99808.22;;;18.34;100.00
44934;BME280;30667;43.614;1.442;2023-05-03T13:08:08;99818.72;;;18.32;100.00